AirNav   Duncan Aviation - Near you to keep you flying
 
 1364 users online  

07GA Alcovy Airport
Covington, Georgia, USA

GOING TO COVINGTON?


FAA INFORMATION EFFECTIVE 04 NOVEMBER 2021

Location

FAA Identifier: 07GA
Lat/Long: 33-40-30.0000N 083-45-47.0000W
33-40.500000N 083-45.783333W
33.6750000,-83.7630556
(estimated)
Elevation: 750 ft. / 229 m (estimated)
Variation: 03W (1995)
From city: 7 miles NE of COVINGTON, GA
Time zone: UTC -4 (UTC -5 during Standard Time)
Zip code: 30014

Airport Operations

Airport use: Private use. Permission required prior to landing
Activation date: 05/1999
Control tower: no
ARTCC: ATLANTA CENTER
FSS: MACON FLIGHT SERVICE STATION
Attendance: UNATNDD
Wind indicator: yes
Segmented circle: no

Airport Communications

WX AWOS-3 at CVC (5 nm SW): 118.725 (770-385-7057)
WX AWOS-3PT at D73 (7 nm NE): 120.825 (678-635-3668)
WX AWOS-3 at WDR (19 nm N): 118.575 (770-868-0642)

Nearby radio navigation aids

VOR radial/distance  VOR name  Freq  Var
AHNr233/27.3ATHENS VOR/DME109.6000E
PDKr119/29.3PEACHTREE VOR/DME116.6005W
ATLr090/33.7ATLANTA VORTAC116.9005W

 
NDB name  Hdg/Dist  Freq  Var  ID
ALCOVY022/2.937003WVOF ...- --- ..-.
BARROW COUNTY214/17.940405WBMW -... -- .--
FLOWERY BRANCH170/32.536503WFKV ..-. -.- ...-

Airport Services

Runway Information

Runway 9/27

Dimensions: 1700 x 80 ft. / 518 x 24 m
Surface: turf
RUNWAY 9  RUNWAY 27
Traffic pattern: leftleft

Airport Ownership and Management from official FAA records

Ownership: Privately-owned
Owner: JAMES E. GROSS
4790 H.D. ATHA ROAD
COVINGTON, GA 30014
Manager: JAMES E. GROSS
4790 H.D. ATHA ROAD
COVINGTON, GA 30014
Phone (404) 427-7017

Airport Operational Statistics

Aircraft based on the field: 1
Single engine airplanes: 1
    

Additional Remarks

FOR CD CTC ATLANTA APCH AT 678-364-6131.

Instrument Procedures

There are no published instrument procedures at 07GA.

Some nearby airports with instrument procedures:

KCVC - Covington Municipal Airport (5 nm SW)
D73 - Cy Nunnally Memorial Airport (7 nm NE)
52A - Madison Municipal Airport (16 nm E)
KWDR - Barrow County Airport (19 nm N)
KLZU - Gwinnett County Airport-Briscoe Field (21 nm NW)
 
Loc | Ops | Rwys | IFR | FBO | Links
Com | Nav | Svcs | Stats | Notes
Area around 07GA (Alcovy Airport)
 
Road maps at: MapQuest Bing Google
 
Aerial photo
No photo
 
Sectional chart

 
Airport distance calculator
Flying to Alcovy Airport? Find the distance to fly.

From to 07GA

Sunrise and sunset
Times for 28-Nov-2021
 Local
(UTC-5)
 Zulu
(UTC)
Morning civil twilight06:5311:53
Sunrise07:2012:20
Sunset17:2622:26
Evening civil twilight17:5322:53

Current date and time
Zulu (UTC)  28-Nov-2021 20:19:56
Local (UTC-5)  28-Nov-2021 15:19:56
 
METAR
KCVC 
5nm SW 
281959Z AUTO 27005KT 10SM CLR 13/00 A2995 RMK AO2
KD73 
7nm NE 
281955Z AUTO 28007KT 10SM CLR 13/00 A2995 RMK AO2 T01321001
KWDR 
19nm N 
281955Z AUTO 31006KT 10SM CLR 15/M01 A2996 RMK AO2
TAF
KAHN 
27nm NE 
281738Z 2818/2918 28006KT P6SM BKN250 FM290000 29006KT P6SM FEW250 FM291500 02004KT P6SM SKC FM291700 33004KT P6SM SKC
KPDK 
30nm NW 
281738Z 2818/2918 29007KT P6SM BKN250 FM290200 32006KT P6SM FEW250 FM291500 34009G19KT P6SM SKC
NOTAMs
Click for the latest NOTAMs
NOTAMs are issued by the DoD/FAA and will open in a separate window not controlled by AirNav.

 

 
 

Would you like to see your business listed on this page?

 If your business provides an interesting product or service to pilots, flight crews, aircraft, or users of the Alcovy Airport, you should consider listing it here.  To start the listing process, click on the button below
 
Add a business
 

Other Pages about Alcovy Airport

Update a link
 
Copyright © AirNav, LLC. All rights reserved. Privacy Policy  Contact